Time;durP1;ratioP1;P1;durP2;ratioP2;P2;SDS_P1;SDS_P2;PMS_P1;PMS_P2;Temp;Humidity;BMP_temperature;BMP_pressure;BME280_temperature;BME280_humidity;BME280_pressure;Samples;Min_cycle;Max_cycle;Signal;HPM_P1;HPM_P2
2022/09/01 00:01:20;;;;;;;1.40;1.17;;;23.90;91.90;;;;;;5042300;28;20803;-92
2022/09/01 00:03:51;;;;;;;2.10;1.33;;;23.90;92.00;;;;;;5037167;28;20957;-92
2022/09/01 00:06:21;;;;;;;1.77;0.80;;;23.80;92.00;;;;;;5037390;28;20424;-94
2022/09/01 00:08:52;;;;;;;2.20;1.20;;;23.80;92.10;;;;;;5037462;28;20433;-92
2022/09/01 00:11:19;;;;;;;1.20;1.10;;;23.80;92.10;;;;;;5036986;28;21001;-92
2022/09/01 00:13:45;;;;;;;3.37;1.17;;;23.80;92.10;;;;;;5036964;28;20535;-93
2022/09/01 00:16:13;;;;;;;2.30;1.40;;;23.70;92.10;;;;;;5037183;28;20446;-93
2022/09/01 00:18:41;;;;;;;1.33;1.23;;;23.70;92.00;;;;;;5040687;28;20501;-92
2022/09/01 00:21:08;;;;;;;1.20;1.10;;;23.70;92.00;;;;;;5055634;28;20432;-94
2022/09/01 00:23:34;;;;;;;1.83;1.20;;;23.70;92.10;;;;;;5039942;28;20439;-94
2022/09/01 00:25:59;;;;;;;2.90;1.20;;;23.70;92.00;;;;;;5040733;28;20471;-92
2022/09/01 00:28:25;;;;;;;1.73;1.20;;;23.60;92.00;;;;;;5058761;28;20191;-93
2022/09/01 00:30:50;;;;;;;1.60;1.50;;;23.60;92.10;;;;;;5040725;28;20285;-91
2022/09/01 00:33:16;;;;;;;1.50;1.40;;;23.70;92.20;;;;;;5040775;28;20283;-94
2022/09/01 00:35:42;;;;;;;1.50;1.40;;;23.60;92.20;;;;;;5040915;28;20693;-92
2022/09/01 00:38:07;;;;;;;1.90;1.47;;;23.60;92.10;;;;;;5040700;28;20194;-94
2022/09/01 00:40:33;;;;;;;1.87;1.63;;;23.60;92.10;;;;;;5041605;28;20253;-92
2022/09/01 00:42:59;;;;;;;1.33;1.20;;;23.60;92.10;;;;;;5041675;28;20275;-94
2022/09/01 00:45:25;;;;;;;1.40;1.30;;;23.60;92.20;;;;;;5041732;28;20527;-95
2022/09/01 00:47:51;;;;;;;1.80;1.47;;;23.60;92.20;;;;;;5042074;28;20700;-93
2022/09/01 00:50:18;;;;;;;1.50;1.40;;;23.60;92.20;;;;;;5043870;28;20218;-92
2022/09/01 00:52:51;;;;;;;2.87;1.30;;;23.50;92.20;;;;;;5046366;28;20814;-93
2022/09/01 00:55:23;;;;;;;1.73;1.60;;;23.50;92.20;;;;;;5040213;28;20429;-93
2022/09/01 00:57:49;;;;;;;1.70;1.60;;;23.50;92.50;;;;;;5040085;28;20451;-95
2022/09/01 01:00:22;;;;;;;1.70;1.20;;;23.50;92.40;;;;;;5041076;28;20475;-92
2022/09/01 01:02:54;;;;;;;1.90;1.60;;;23.50;92.40;;;;;;5040082;28;20236;-94
2022/09/01 01:05:26;;;;;;;2.70;1.30;;;23.40;92.40;;;;;;5045684;28;20493;-92
2022/09/01 01:07:54;;;;;;;1.60;1.50;;;23.40;92.50;;;;;;5040911;28;20821;-93
2022/09/01 01:10:21;;;;;;;1.60;1.43;;;23.40;92.50;;;;;;5040935;28;20429;-93
2022/09/01 01:12:50;;;;;;;1.60;1.27;;;23.40;92.50;;;;;;5040694;28;20421;-94
2022/09/01 01:15:17;;;;;;;1.93;1.60;;;23.40;92.60;;;;;;5040893;28;20462;-94
2022/09/01 01:17:43;;;;;;;1.30;1.17;;;23.40;92.50;;;;;;5040925;28;20447;-94
2022/09/01 01:23:39;;;;;;;3.23;1.77;;;23.30;92.80;;;;;;5058823;28;20559;-94
2022/09/01 01:26:09;;;;;;;2.47;1.60;;;23.30;92.70;;;;;;5034384;28;20570;-93
2022/09/01 01:28:40;;;;;;;1.93;1.40;;;23.30;92.70;;;;;;5049640;28;20425;-95
2022/09/01 01:31:17;;;;;;;1.47;1.37;;;23.20;92.80;;;;;;5041936;28;20464;-94
2022/09/01 01:33:49;;;;;;;5.20;1.70;;;23.20;92.90;;;;;;5061493;28;20938;-93
2022/09/01 01:36:31;;;;;;;3.73;1.77;;;23.10;92.90;;;;;;5042074;28;20521;-94
2022/09/01 01:39:01;;;;;;;2.27;1.73;;;23.10;93.00;;;;;;5039275;28;20472;-94
2022/09/01 01:41:29;;;;;;;1.67;1.50;;;23.10;92.90;;;;;;5039843;28;20524;-92
2022/09/01 01:44:00;;;;;;;2.17;1.53;;;23.10;93.00;;;;;;5038753;28;20425;-94
2022/09/01 01:46:26;;;;;;;2.97;1.30;;;23.00;93.00;;;;;;5039264;28;20415;-92
2022/09/01 01:48:52;;;;;;;1.53;1.30;;;23.00;93.00;;;;;;5038774;28;20442;-94
2022/09/01 01:51:20;;;;;;;1.70;1.50;;;23.00;93.20;;;;;;5038871;28;20471;-91
2022/09/01 01:53:46;;;;;;;1.43;1.37;;;23.00;93.20;;;;;;5039073;28;20959;-94
2022/09/01 01:56:13;;;;;;;2.00;1.30;;;23.00;93.20;;;;;;5038451;28;20463;-92
2022/09/01 01:58:39;;;;;;;1.90;1.60;;;22.90;93.30;;;;;;5038993;28;20423;-95
2022/09/01 02:01:09;;;;;;;2.23;1.50;;;22.90;93.40;;;;;;5038688;28;20435;-93
2022/09/01 02:03:35;;;;;;;2.37;1.70;;;22.90;93.40;;;;;;5038905;28;20427;-93
2022/09/01 02:06:06;;;;;;;1.80;1.70;;;22.90;93.50;;;;;;5038472;28;20425;-93
2022/09/01 02:08:34;;;;;;;3.13;1.70;;;22.90;93.80;;;;;;5040156;28;20182;-92
2022/09/01 02:11:04;;;;;;;1.60;1.37;;;22.80;93.90;;;;;;5042707;28;20594;-91
2022/09/01 02:13:30;;;;;;;2.87;1.53;;;22.80;94.00;;;;;;5039555;28;20507;-94
2022/09/01 02:16:00;;;;;;;2.60;1.63;;;22.70;94.30;;;;;;5040787;28;20435;-92
2022/09/01 02:18:34;;;;;;;2.67;1.90;;;22.60;95.00;;;;;;5046318;28;20189;-94
2022/09/01 02:21:00;;;;;;;1.80;1.70;;;22.50;96.00;;;;;;5048104;28;20457;-92
2022/09/01 02:23:26;;;;;;;6.20;2.27;;;22.40;96.90;;;;;;5066112;28;20438;-90
2022/09/01 02:26:01;;;;;;;4.33;1.80;;;22.20;97.90;;;;;;5038806;28;20541;-94
2022/09/01 02:28:30;;;;;;;7.03;1.93;;;22.00;98.90;;;;;;5038271;28;20465;-91
2022/09/01 02:30:58;;;;;;;7.83;2.27;;;21.90;99.90;;;;;;5038081;28;20438;-91
2022/09/01 02:33:25;;;;;;;3.20;1.67;;;21.70;99.90;;;;;;5038090;28;20419;-94
2022/09/01 02:35:54;;;;;;;2.10;1.90;;;21.60;99.90;;;;;;5038016;28;20427;-94
2022/09/01 02:38:25;;;;;;;2.47;2.27;;;21.50;99.90;;;;;;5038287;28;20430;-94
2022/09/01 02:40:52;;;;;;;4.20;1.80;;;21.40;99.90;;;;;;5038489;28;20836;-91
2022/09/01 02:43:19;;;;;;;4.43;2.40;;;21.20;99.90;;;;;;5056234;28;20576;-94
2022/09/01 02:45:51;;;;;;;4.37;2.10;;;21.00;99.90;;;;;;5038111;28;20438;-94
2022/09/01 02:48:17;;;;;;;3.83;2.30;;;20.80;99.90;;;;;;5045487;28;20489;-90
2022/09/01 02:50:43;;;;;;;5.20;2.57;;;20.60;99.90;;;;;;5048337;28;20947;-92
2022/09/01 02:53:10;;;;;;;3.57;2.33;;;20.50;99.90;;;;;;5042126;28;20231;-92
2022/09/01 02:55:38;;;;;;;6.10;2.23;;;20.40;99.90;;;;;;5040222;28;20201;-92
2022/09/01 02:58:09;;;;;;;2.00;1.80;;;20.30;99.90;;;;;;5057700;28;20436;-94
2022/09/01 03:00:38;;;;;;;3.10;2.33;;;20.20;99.90;;;;;;5038937;28;20480;-94
2022/09/01 03:03:05;;;;;;;3.23;2.30;;;20.10;99.90;;;;;;5056483;28;20446;-94
2022/09/01 03:05:33;;;;;;;3.40;2.33;;;20.00;99.90;;;;;;5039493;28;20422;-92
2022/09/01 03:08:02;;;;;;;2.50;2.27;;;19.90;99.90;;;;;;5046852;28;20438;-92
2022/09/01 03:10:31;;;;;;;8.70;3.10;;;19.90;99.90;;;;;;5037278;28;20442;-94
2022/09/01 03:13:07;;;;;;;6.23;3.43;;;19.80;99.90;;;;;;5037419;28;20564;-92
2022/09/01 03:15:33;;;;;;;3.77;2.43;;;19.70;99.90;;;;;;5037201;28;20437;-95
2022/09/01 03:18:00;;;;;;;2.83;2.53;;;19.50;99.90;;;;;;5055249;28;20551;-92
2022/09/01 03:20:28;;;;;;;5.33;2.43;;;19.50;99.90;;;;;;5037428;28;20477;-94
2022/09/01 03:22:56;;;;;;;4.90;2.77;;;19.40;99.90;;;;;;5037283;28;20433;-91
2022/09/01 03:25:24;;;;;;;5.43;2.20;;;19.40;99.90;;;;;;5036624;28;20473;-92
2022/09/01 03:27:51;;;;;;;4.90;2.53;;;19.30;99.90;;;;;;5037147;28;20438;-93
2022/09/01 03:30:17;;;;;;;3.30;2.60;;;19.30;99.90;;;;;;5037525;28;21049;-95
2022/09/01 03:32:43;;;;;;;5.80;2.97;;;19.30;99.90;;;;;;5037680;28;20434;-92
2022/09/01 03:35:11;;;;;;;6.87;2.63;;;19.30;99.90;;;;;;5054492;28;20439;-93
2022/09/01 03:37:38;;;;;;;6.97;3.30;;;19.30;99.90;;;;;;5039138;28;20480;-94
2022/09/01 03:40:07;;;;;;;4.67;3.27;;;19.30;99.90;;;;;;5043455;28;20487;-92
2022/09/01 03:42:34;;;;;;;3.87;2.60;;;19.30;99.90;;;;;;5062837;28;20429;-93
2022/09/01 03:45:08;;;;;;;3.77;2.70;;;19.30;99.90;;;;;;5039238;28;20438;-92
2022/09/01 03:47:43;;;;;;;5.00;3.30;;;19.30;99.90;;;;;;5038666;28;20444;-94
2022/09/01 03:50:20;;;;;;;4.80;2.37;;;19.20;99.90;;;;;;5038111;28;20847;-94
2022/09/01 03:52:57;;;;;;;2.90;2.20;;;19.10;99.90;;;;;;5038532;28;20434;-92
2022/09/01 03:55:26;;;;;;;3.03;2.30;;;19.00;99.90;;;;;;5039105;28;20464;-95
2022/09/01 03:58:05;;;;;;;2.97;2.20;;;18.90;99.90;;;;;;5046088;28;20457;-95
2022/09/01 04:00:34;;;;;;;4.30;2.90;;;18.80;99.90;;;;;;5039558;28;20481;-94
2022/09/01 04:03:02;;;;;;;3.80;2.30;;;18.70;99.90;;;;;;5040164;28;20436;-94
2022/09/01 04:05:32;;;;;;;7.93;2.97;;;18.70;99.90;;;;;;5039992;28;20432;-94
2022/09/01 04:08:02;;;;;;;4.63;2.60;;;18.60;99.90;;;;;;5039783;28;20425;-94
2022/09/01 04:10:33;;;;;;;4.17;2.77;;;18.50;99.90;;;;;;5040092;28;20449;-92
2022/09/01 04:13:00;;;;;;;2.70;2.30;;;18.50;99.90;;;;;;5039522;28;20443;-91
2022/09/01 04:15:27;;;;;;;4.80;2.70;;;18.40;99.90;;;;;;5039156;28;20447;-94
2022/09/01 04:18:09;;;;;;;5.60;3.03;;;18.40;99.90;;;;;;5056056;28;20776;-91
2022/09/01 04:20:47;;;;;;;3.60;2.60;;;18.40;99.90;;;;;;5053261;28;20516;-92
2022/09/01 04:23:32;;;;;;;3.30;2.10;;;18.40;99.90;;;;;;5054068;28;20455;-95
2022/09/01 04:26:08;;;;;;;3.10;2.50;;;18.40;99.90;;;;;;4999760;28;1240481;-94
2022/09/01 04:28:39;;;;;;;3.03;2.23;;;18.50;99.90;;;;;;5041542;28;20185;-95
2022/09/01 04:31:08;;;;;;;2.43;2.10;;;18.50;99.90;;;;;;5042969;28;20879;-94
2022/09/01 04:33:39;;;;;;;4.67;2.33;;;18.50;99.90;;;;;;5041551;28;20937;-94
2022/09/01 04:36:13;;;;;;;3.93;2.23;;;18.60;99.90;;;;;;5061220;28;20466;-94
2022/09/01 04:38:38;;;;;;;4.00;2.40;;;18.60;99.90;;;;;;5053618;28;20440;-94
2022/09/01 04:41:05;;;;;;;2.23;2.00;;;18.60;99.90;;;;;;5038953;28;20455;-93
2022/09/01 04:43:32;;;;;;;3.67;2.07;;;18.60;99.90;;;;;;5057833;28;20282;-92
2022/09/01 04:45:58;;;;;;;2.53;2.00;;;18.50;99.90;;;;;;5058129;28;20445;-92
2022/09/01 04:48:24;;;;;;;2.87;2.20;;;18.50;99.90;;;;;;5051960;28;20412;-92
2022/09/01 04:50:51;;;;;;;3.53;1.97;;;18.40;99.90;;;;;;5061536;28;20443;-94
2022/09/01 04:53:18;;;;;;;14.90;2.30;;;18.40;99.90;;;;;;5061597;28;20424;-93
2022/09/01 04:55:45;;;;;;;3.43;2.23;;;18.30;99.90;;;;;;5046707;28;20878;-94
2022/09/01 04:58:17;;;;;;;2.70;2.10;;;18.30;99.90;;;;;;5039866;28;20983;-91
2022/09/01 05:00:48;;;;;;;3.30;2.00;;;18.30;99.90;;;;;;5043941;28;20482;-94
2022/09/01 05:03:14;;;;;;;2.70;1.83;;;18.20;99.90;;;;;;5060623;28;20424;-94
2022/09/01 05:05:42;;;;;;;4.17;2.30;;;18.20;99.90;;;;;;5041630;28;20471;-92
2022/09/01 05:08:14;;;;;;;3.00;1.80;;;18.20;99.90;;;;;;5041800;28;20196;-92
2022/09/01 05:10:42;;;;;;;5.73;2.77;;;18.10;99.90;;;;;;5063734;28;20939;-93
2022/09/01 05:13:16;;;;;;;2.57;2.13;;;18.10;99.90;;;;;;5046021;28;20431;-94
2022/09/01 05:15:45;;;;;;;3.43;2.07;;;18.20;99.90;;;;;;5040816;28;20449;-93
2022/09/01 05:18:23;;;;;;;3.73;2.10;;;18.20;99.90;;;;;;5040209;28;20433;-92
2022/09/01 05:20:51;;;;;;;4.13;2.37;;;18.30;99.90;;;;;;5042842;28;20571;-92
2022/09/01 05:23:18;;;;;;;4.57;2.40;;;18.30;99.90;;;;;;5038288;28;20452;-94
2022/09/01 05:25:48;;;;;;;6.50;2.47;;;18.30;99.90;;;;;;5059148;28;20471;-94
2022/09/01 05:28:18;;;;;;;3.83;2.70;;;18.40;99.90;;;;;;5062410;28;20435;-93
2022/09/01 05:30:46;;;;;;;3.10;2.13;;;18.40;99.90;;;;;;5049466;28;20662;-93
2022/09/01 05:33:15;;;;;;;3.50;2.20;;;18.40;99.90;;;;;;5059720;28;20428;-92
2022/09/01 05:35:50;;;;;;;3.03;2.73;;;18.40;99.90;;;;;;5053145;28;20488;-95
2022/09/01 05:38:17;;;;;;;6.73;2.80;;;18.50;99.90;;;;;;5058800;28;20476;-94
2022/09/01 05:40:43;;;;;;;2.80;2.37;;;18.50;99.90;;;;;;5035938;28;20483;-93
2022/09/01 05:43:11;;;;;;;2.87;2.53;;;18.50;99.90;;;;;;5033517;28;20434;-94
2022/09/01 05:45:42;;;;;;;3.27;2.20;;;18.50;99.90;;;;;;5036359;28;20455;-91
2022/09/01 05:48:13;;;;;;;2.63;2.07;;;18.50;99.90;;;;;;5036437;28;20958;-93
2022/09/01 05:50:41;;;;;;;4.50;2.30;;;18.50;99.90;;;;;;5036831;28;20452;-93
2022/09/01 05:53:14;;;;;;;2.97;2.67;;;18.50;99.90;;;;;;5036951;28;20953;-94
2022/09/01 05:55:42;;;;;;;4.40;2.20;;;18.50;99.90;;;;;;5036367;28;20460;-92
2022/09/01 05:58:13;;;;;;;2.00;1.77;;;18.50;99.90;;;;;;5035587;28;20491;-94
2022/09/01 06:00:46;;;;;;;3.73;1.90;;;18.50;99.90;;;;;;5058029;28;20469;-92
2022/09/01 06:03:13;;;;;;;4.03;2.30;;;18.50;99.90;;;;;;5048290;28;20487;-92
2022/09/01 06:05:39;;;;;;;2.37;2.10;;;18.50;99.90;;;;;;5056395;28;20560;-92
2022/09/01 06:08:06;;;;;;;2.67;2.47;;;18.50;99.90;;;;;;5030084;28;20444;-95
2022/09/01 06:10:38;;;;;;;2.27;1.90;;;18.50;99.90;;;;;;5035972;28;21018;-92
2022/09/01 06:13:05;;;;;;;2.70;1.90;;;18.50;99.90;;;;;;5037222;28;20434;-93
2022/09/01 06:15:32;;;;;;;3.87;2.60;;;18.50;99.90;;;;;;5038732;28;20522;-92
2022/09/01 06:17:59;;;;;;;2.87;2.33;;;18.50;99.90;;;;;;5054675;28;20515;-94
2022/09/01 06:20:25;;;;;;;4.50;2.10;;;18.50;99.90;;;;;;5043301;28;20592;-95
2022/09/01 06:22:53;;;;;;;2.47;2.20;;;18.50;99.90;;;;;;5048625;28;20421;-92
2022/09/01 06:25:20;;;;;;;2.77;2.00;;;18.50;99.90;;;;;;5076657;28;20503;-91
2022/09/01 06:27:47;;;;;;;2.57;1.97;;;18.50;99.90;;;;;;5062940;28;20430;-92
2022/09/01 06:30:16;;;;;;;4.53;2.77;;;18.50;99.90;;;;;;5037256;28;20451;-92
2022/09/01 06:32:43;;;;;;;3.93;1.90;;;18.50;99.90;;;;;;5052743;28;20443;-92
2022/09/01 06:35:14;;;;;;;2.60;2.40;;;18.50;99.90;;;;;;5034125;28;20437;-92
2022/09/01 06:37:42;;;;;;;3.50;2.40;;;18.50;99.90;;;;;;5037150;28;21015;-92
2022/09/01 06:40:15;;;;;;;2.60;2.30;;;18.50;99.90;;;;;;5040812;28;20605;-95
2022/09/01 06:42:49;;;;;;;3.03;2.70;;;18.50;99.90;;;;;;5036366;28;20513;-92
2022/09/01 06:45:17;;;;;;;2.13;1.80;;;18.50;99.90;;;;;;5036123;28;20456;-92
2022/09/01 06:47:44;;;;;;;2.57;2.17;;;18.50;99.90;;;;;;5037927;28;21109;-95
2022/09/01 06:50:21;;;;;;;2.50;2.23;;;18.50;99.90;;;;;;5036382;28;20782;-94
2022/09/01 06:53:02;;;;;;;3.23;2.23;;;18.60;99.90;;;;;;5036417;28;20522;-94
2022/09/01 06:55:32;;;;;;;3.23;1.93;;;18.60;99.90;;;;;;5043018;28;20472;-95
2022/09/01 06:57:58;;;;;;;3.07;2.33;;;18.60;99.90;;;;;;5036279;28;20427;-92
2022/09/01 07:00:25;;;;;;;2.13;1.93;;;18.50;99.90;;;;;;5038112;28;20534;-92
2022/09/01 07:02:56;;;;;;;3.60;2.10;;;18.50;99.90;;;;;;5036146;28;20526;-93
2022/09/01 07:05:23;;;;;;;2.13;1.93;;;18.50;99.90;;;;;;5039099;28;20885;-91
2022/09/01 07:07:53;;;;;;;2.63;2.40;;;18.40;99.90;;;;;;5034143;28;20414;-94
2022/09/01 07:10:21;;;;;;;3.83;2.57;;;18.40;99.90;;;;;;5044275;28;20468;-94
2022/09/01 07:13:00;;;;;;;2.70;2.50;;;18.40;99.90;;;;;;5034149;28;20764;-91
2022/09/01 07:15:28;;;;;;;2.20;2.10;;;18.40;99.90;;;;;;5034637;28;20449;-93
2022/09/01 07:17:55;;;;;;;2.80;2.20;;;18.40;99.90;;;;;;5037060;28;20487;-92
2022/09/01 07:20:28;;;;;;;2.87;2.50;;;18.30;99.90;;;;;;5046266;28;20496;-92
2022/09/01 07:22:55;;;;;;;2.83;2.63;;;18.30;99.90;;;;;;5051309;28;20415;-94
2022/09/01 07:25:21;;;;;;;2.30;2.07;;;18.30;99.90;;;;;;5034883;28;20464;-93
2022/09/01 07:27:50;;;;;;;2.60;2.20;;;18.40;99.90;;;;;;5032357;28;20458;-93
2022/09/01 07:30:17;;;;;;;2.67;2.47;;;18.40;99.90;;;;;;5033648;28;20452;-92
2022/09/01 07:32:45;;;;;;;3.37;2.60;;;18.40;99.90;;;;;;5051142;28;20431;-93
2022/09/01 07:35:12;;;;;;;2.50;2.30;;;18.50;99.90;;;;;;5034306;28;20464;-93
2022/09/01 07:37:37;;;;;;;3.20;2.37;;;18.50;99.90;;;;;;5033077;28;20444;-94
2022/09/01 07:40:05;;;;;;;4.13;2.53;;;18.60;99.90;;;;;;5050401;28;20756;-92
2022/09/01 07:42:31;;;;;;;2.77;2.30;;;18.60;99.90;;;;;;5035023;28;20246;-93
2022/09/01 07:44:57;;;;;;;6.50;2.53;;;18.60;99.90;;;;;;5036158;28;20940;-92
2022/09/01 07:47:23;;;;;;;3.10;2.90;;;18.70;99.90;;;;;;5052783;28;20247;-92
2022/09/01 07:49:48;;;;;;;2.90;2.50;;;18.80;99.90;;;;;;5034494;28;20214;-92
2022/09/01 07:52:14;;;;;;;2.90;2.33;;;18.80;99.90;;;;;;5032473;28;20531;-93
2022/09/01 07:54:41;;;;;;;3.97;2.90;;;18.80;99.90;;;;;;5043009;28;20210;-94
2022/09/01 07:57:06;;;;;;;2.80;2.53;;;18.90;99.90;;;;;;5044664;28;20433;-94
2022/09/01 07:59:34;;;;;;;2.80;2.50;;;18.90;99.90;;;;;;5036935;28;20491;-93
2022/09/01 08:02:04;;;;;;;3.33;2.63;;;19.00;99.90;;;;;;5032168;28;20422;-93
2022/09/01 08:04:31;;;;;;;4.37;2.63;;;19.00;99.90;;;;;;5030141;28;20544;-92
2022/09/01 08:06:56;;;;;;;2.17;1.97;;;19.10;99.90;;;;;;5026288;28;20430;-94
2022/09/01 08:09:23;;;;;;;2.73;2.47;;;19.10;99.90;;;;;;5037551;28;20614;-91
2022/09/01 08:11:48;;;;;;;4.97;3.13;;;19.10;99.90;;;;;;5034006;28;20189;-91
2022/09/01 08:14:14;;;;;;;3.47;2.97;;;19.20;99.90;;;;;;5035721;28;20466;-91
2022/09/01 08:16:40;;;;;;;3.70;3.10;;;19.20;99.90;;;;;;5030063;28;20174;-94
2022/09/01 08:19:06;;;;;;;6.53;2.60;;;19.30;99.90;;;;;;5054070;28;20229;-93
2022/09/01 08:21:32;;;;;;;3.40;2.30;;;19.30;99.90;;;;;;5043885;28;20203;-94
2022/09/01 08:23:58;;;;;;;2.90;2.40;;;19.30;99.90;;;;;;5028341;28;20433;-91
2022/09/01 08:26:25;;;;;;;2.37;2.17;;;19.40;99.90;;;;;;5025114;28;20975;-95
2022/09/01 08:28:52;;;;;;;4.00;2.67;;;19.40;99.90;;;;;;5020558;28;20847;-93
2022/09/01 08:31:20;;;;;;;3.17;2.80;;;19.40;99.90;;;;;;5034386;28;20448;-91
2022/09/01 08:33:47;;;;;;;7.80;3.00;;;19.40;99.90;;;;;;5032089;28;20437;-93
2022/09/01 08:36:14;;;;;;;2.40;2.20;;;19.40;99.90;;;;;;5031331;28;20493;-91
2022/09/01 08:38:40;;;;;;;5.83;3.20;;;19.50;99.90;;;;;;5027824;28;20449;-94
2022/09/01 08:41:16;;;;;;;3.57;2.77;;;19.50;99.90;;;;;;5030820;28;20461;-93
2022/09/01 08:44:11;;;;;;;2.20;2.10;;;19.60;99.90;;;;;;5030090;28;20449;-94
2022/09/01 08:46:40;;;;;;;3.10;2.80;;;19.60;99.90;;;;;;5044001;28;20971;-94
2022/09/01 08:49:12;;;;;;;6.27;3.13;;;19.70;99.90;;;;;;5043915;28;20437;-92
2022/09/01 08:51:57;;;;;;;7.10;2.50;;;19.70;99.90;;;;;;5038950;28;20433;-94
2022/09/01 08:54:47;;;;;;;4.10;3.03;;;19.70;99.90;;;;;;5060869;28;20510;-92
2022/09/01 08:57:20;;;;;;;4.27;3.13;;;19.70;99.90;;;;;;5021906;28;20454;-92
2022/09/01 08:59:46;;;;;;;2.77;2.57;;;19.80;99.90;;;;;;5028214;28;20503;-95
2022/09/01 09:02:30;;;;;;;7.90;3.40;;;19.80;99.90;;;;;;5045864;28;20446;-91
2022/09/01 09:05:24;;;;;;;3.10;2.80;;;19.80;99.90;;;;;;5042305;28;20452;-90
2022/09/01 09:08:21;;;;;;;4.03;2.90;;;19.90;99.90;;;;;;5050434;28;20434;-91
2022/09/01 09:11:00;;;;;;;3.50;3.13;;;19.90;99.90;;;;;;5027000;28;20459;-92
2022/09/01 09:13:57;;;;;;;2.80;2.60;;;20.00;99.90;;;;;;5053103;28;20468;-93
2022/09/01 09:16:27;;;;;;;3.80;2.70;;;20.00;99.90;;;;;;5045045;28;20446;-92
2022/09/01 09:18:59;;;;;;;3.47;2.80;;;20.10;99.90;;;;;;5049898;28;20434;-93
2022/09/01 09:21:31;;;;;;;2.77;2.53;;;20.20;99.90;;;;;;5035320;28;20889;-91
2022/09/01 09:24:20;;;;;;;6.00;3.00;;;20.30;99.90;;;;;;5037577;28;20434;-92
2022/09/01 09:26:50;;;;;;;2.60;2.33;;;20.40;99.90;;;;;;5029523;28;20446;-90
2022/09/01 09:29:17;;;;;;;3.40;2.53;;;20.40;99.90;;;;;;5035567;28;20535;-91
2022/09/01 09:31:47;;;;;;;2.97;2.77;;;20.50;99.90;;;;;;5028671;28;20455;-91
2022/09/01 09:34:35;;;;;;;40.40;7.03;;;20.50;99.90;;;;;;5027256;28;20471;-92
2022/09/01 09:37:16;;;;;;;6.87;3.80;;;20.60;99.90;;;;;;5035492;28;20816;-94
2022/09/01 09:39:42;;;;;;;4.97;2.60;;;20.70;99.90;;;;;;5030646;28;20474;-94
2022/09/01 09:42:13;;;;;;;2.50;2.30;;;20.80;99.90;;;;;;5046061;28;20454;-92
2022/09/01 09:44:50;;;;;;;2.80;2.50;;;20.90;99.90;;;;;;5033957;28;20994;-91
2022/09/01 09:47:34;;;;;;;2.70;2.07;;;21.00;99.90;;;;;;5042873;28;20429;-92
2022/09/01 09:50:34;;;;;;;3.80;2.40;;;21.00;99.90;;;;;;5033905;28;20462;-92
2022/09/01 09:53:15;;;;;;;2.63;2.43;;;21.10;99.90;;;;;;5018473;28;20449;-91
2022/09/01 09:56:08;;;;;;;2.63;2.07;;;21.20;99.90;;;;;;5027491;28;20481;-94
2022/09/01 09:58:39;;;;;;;3.63;2.20;;;21.20;99.90;;;;;;5025063;28;20446;-91
2022/09/01 10:01:15;;;;;;;3.10;2.67;;;21.30;99.90;;;;;;5031120;28;20573;-94
2022/09/01 10:03:50;;;;;;;2.73;2.30;;;21.40;99.90;;;;;;5032176;28;21012;-92
2022/09/01 10:06:40;;;;;;;2.13;1.97;;;21.40;99.90;;;;;;5039791;28;20520;-92
2022/09/01 10:09:26;;;;;;;3.00;1.90;;;21.50;99.90;;;;;;5031192;28;20473;-92
2022/09/01 10:11:56;;;;;;;4.80;2.17;;;21.60;99.90;;;;;;5020609;28;20414;-90
2022/09/01 10:14:30;;;;;;;2.83;2.20;;;21.60;99.90;;;;;;5035373;28;20447;-94
2022/09/01 10:17:01;;;;;;;4.10;2.30;;;21.60;99.90;;;;;;5051995;28;20423;-91
2022/09/01 10:19:29;;;;;;;19.37;11.10;;;21.70;99.90;;;;;;5031440;28;20493;-91
2022/09/01 10:21:55;;;;;;;9.90;5.80;;;21.70;99.90;;;;;;5034911;28;20948;-93
2022/09/01 10:24:36;;;;;;;3.53;2.37;;;21.80;99.90;;;;;;5031306;28;20506;-94
2022/09/01 10:27:09;;;;;;;2.80;2.50;;;21.80;99.90;;;;;;5038355;28;20443;-90
2022/09/01 10:30:04;;;;;;;5.67;2.37;;;21.80;99.90;;;;;;5035909;28;20458;-91
2022/09/01 10:32:40;;;;;;;2.83;2.50;;;21.80;99.90;;;;;;5012162;28;20842;-94
2022/09/01 10:35:11;;;;;;;3.30;2.00;;;21.80;99.90;;;;;;5033499;28;20446;-91
2022/09/01 10:37:37;;;;;;;3.13;2.47;;;21.80;99.90;;;;;;5048384;28;20437;-92
2022/09/01 10:40:27;;;;;;;2.83;2.53;;;21.90;99.90;;;;;;5040179;28;20466;-93
2022/09/01 10:43:14;;;;;;;2.77;2.03;;;21.90;99.90;;;;;;5052611;28;20781;-90
2022/09/01 10:45:39;;;;;;;2.20;2.00;;;22.00;99.90;;;;;;5036705;28;20530;-93
2022/09/01 10:48:22;;;;;;;4.20;2.10;;;22.00;99.90;;;;;;5036361;28;20538;-90
2022/09/01 10:50:50;;;;;;;6.20;2.90;;;22.10;99.90;;;;;;5033543;28;21969;-92
2022/09/01 10:53:41;;;;;;;3.30;2.60;;;22.00;99.90;;;;;;5032660;28;20548;-91
2022/09/01 10:56:13;;;;;;;2.03;1.87;;;22.10;99.90;;;;;;5023180;28;20463;-90
2022/09/01 10:59:02;;;;;;;2.80;2.03;;;22.20;99.90;;;;;;5034638;28;20444;-94
2022/09/01 11:01:40;;;;;;;2.50;2.30;;;22.20;99.90;;;;;;5052237;28;20462;-91
2022/09/01 11:04:16;;;;;;;2.73;2.27;;;22.30;99.90;;;;;;5022388;28;20443;-90
2022/09/01 11:06:42;;;;;;;2.80;2.17;;;22.40;99.90;;;;;;5034158;28;20431;-92
2022/09/01 11:09:35;;;;;;;2.60;2.30;;;22.40;99.90;;;;;;5048231;28;20490;-91
2022/09/01 11:12:25;;;;;;;3.30;2.00;;;22.40;99.90;;;;;;5071026;28;20174;-91
2022/09/01 11:15:00;;;;;;;2.33;2.13;;;22.40;99.90;;;;;;5036652;28;20919;-93
2022/09/01 11:17:38;;;;;;;6.10;2.07;;;22.40;99.90;;;;;;5034307;28;20568;-91
2022/09/01 11:20:10;;;;;;;2.40;2.20;;;22.40;99.90;;;;;;5028292;28;20482;-94
2022/09/01 11:22:42;;;;;;;8.00;2.37;;;22.40;99.90;;;;;;5035715;28;20449;-91
2022/09/01 11:25:13;;;;;;;2.67;2.37;;;22.40;99.90;;;;;;5032378;28;20990;-91
2022/09/01 11:27:48;;;;;;;3.60;2.33;;;22.40;99.90;;;;;;5031042;28;20441;-92
2022/09/01 11:30:31;;;;;;;6.03;2.60;;;22.50;99.90;;;;;;5047309;28;20463;-92
2022/09/01 11:33:06;;;;;;;6.70;2.17;;;22.50;99.90;;;;;;5037721;28;20870;-92
2022/09/01 11:35:31;;;;;;;3.47;2.67;;;22.50;99.90;;;;;;5035902;28;20473;-91
2022/09/01 11:38:05;;;;;;;2.77;2.40;;;22.50;99.90;;;;;;5037498;28;20439;-91
2022/09/01 11:40:33;;;;;;;2.30;2.17;;;22.50;99.90;;;;;;5044196;28;20232;-93
2022/09/01 11:43:06;;;;;;;3.20;2.90;;;22.50;99.90;;;;;;5035327;28;20435;-92
2022/09/01 11:45:51;;;;;;;2.50;2.30;;;22.50;99.90;;;;;;5063771;28;20455;-92
2022/09/01 11:48:17;;;;;;;3.67;2.43;;;22.40;99.90;;;;;;5075796;28;20453;-94
2022/09/01 11:50:42;;;;;;;2.63;2.40;;;22.40;99.90;;;;;;5050527;28;20459;-92
2022/09/01 11:53:14;;;;;;;2.80;2.40;;;22.40;99.90;;;;;;5068763;28;20187;-92
2022/09/01 11:55:43;;;;;;;3.47;2.40;;;22.40;99.90;;;;;;5038393;28;20696;-93
2022/09/01 11:58:31;;;;;;;2.00;1.80;;;22.40;99.90;;;;;;5034984;28;20498;-94
2022/09/01 12:01:12;;;;;;;2.60;2.40;;;22.40;99.90;;;;;;5058166;28;20990;-92
2022/09/01 12:03:38;;;;;;;2.43;2.23;;;22.40;99.90;;;;;;5036124;28;20771;-94
2022/09/01 12:06:07;;;;;;;3.10;2.30;;;22.40;99.90;;;;;;5033320;28;20463;-92
2022/09/01 12:08:37;;;;;;;2.37;2.17;;;22.40;99.90;;;;;;5032209;28;20177;-91
2022/09/01 12:11:11;;;;;;;2.60;2.30;;;22.40;99.90;;;;;;5033726;28;20458;-93
2022/09/01 12:13:39;;;;;;;2.57;2.37;;;22.50;99.90;;;;;;5035158;28;20779;-92
2022/09/01 12:16:08;;;;;;;2.77;2.30;;;22.50;99.90;;;;;;5037368;28;20451;-90
2022/09/01 12:18:42;;;;;;;2.90;2.67;;;22.50;99.90;;;;;;5036394;28;20470;-95
2022/09/01 12:21:39;;;;;;;4.30;2.23;;;22.50;99.90;;;;;;5037027;28;20478;-92
2022/09/01 12:24:19;;;;;;;3.27;1.93;;;22.50;99.90;;;;;;5052816;28;20440;-91
2022/09/01 12:26:47;;;;;;;3.33;2.40;;;22.50;99.90;;;;;;5036465;28;20427;-91
2022/09/01 12:29:13;;;;;;;3.40;2.73;;;22.50;99.90;;;;;;5037321;28;20459;-93
2022/09/01 12:31:42;;;;;;;2.43;2.20;;;22.50;99.90;;;;;;5037104;28;20438;-91
2022/09/01 12:34:24;;;;;;;3.30;2.20;;;22.50;99.90;;;;;;5038134;28;20428;-92
2022/09/01 12:37:11;;;;;;;3.57;2.40;;;22.50;99.90;;;;;;5033282;28;20532;-90
2022/09/01 12:40:00;;;;;;;2.47;2.23;;;22.50;99.90;;;;;;5043656;28;20485;-91
2022/09/01 12:42:31;;;;;;;2.43;2.23;;;22.50;99.90;;;;;;5022909;28;20425;-91
2022/09/01 12:45:04;;;;;;;2.63;2.43;;;22.60;99.90;;;;;;5025381;28;20486;-93
2022/09/01 12:47:32;;;;;;;2.00;1.90;;;22.60;99.90;;;;;;5031623;28;20463;-92
2022/09/01 12:50:18;;;;;;;4.17;3.03;;;22.60;99.90;;;;;;5034576;28;20547;-92
2022/09/01 12:52:45;;;;;;;2.93;2.47;;;22.50;99.90;;;;;;5052394;28;20425;-90
2022/09/01 12:55:18;;;;;;;2.47;2.07;;;22.50;99.90;;;;;;5055848;28;20795;-91
2022/09/01 12:57:53;;;;;;;3.20;2.43;;;22.50;99.90;;;;;;5039888;28;20775;-92
2022/09/01 13:00:23;;;;;;;3.07;1.87;;;22.50;99.90;;;;;;5037702;28;20483;-91
2022/09/01 13:03:14;;;;;;;2.67;2.47;;;22.60;99.90;;;;;;5038068;28;20436;-92
2022/09/01 13:05:51;;;;;;;2.97;2.60;;;22.60;99.90;;;;;;5043777;28;20481;-94
2022/09/01 13:08:19;;;;;;;4.30;2.20;;;22.60;99.90;;;;;;5015176;28;20452;-91
2022/09/01 13:10:52;;;;;;;2.40;2.20;;;22.70;99.90;;;;;;5031637;28;21248;-92